Time;durP1;ratioP1;P1;durP2;ratioP2;P2;SDS_P1;SDS_P2;PMS_P1;PMS_P2;Temp;Humidity;BMP_temperature;BMP_pressure;BME280_temperature;BME280_humidity;BME280_pressure;Samples;Min_cycle;Max_cycle;Signal;HPM_P1;HPM_P2
2023/09/14 00:08:39;;;;;;;23.02;17.55;;;13.40;99.90;;;;;;25593670;23;20001;-61
2023/09/14 00:18:41;;;;;;;14.27;9.70;;;13.30;99.90;;;;;;25592776;23;20005;-61
2023/09/14 00:28:42;;;;;;;10.30;8.93;;;13.20;99.90;;;;;;25592462;23;20408;-61
2023/09/14 00:38:44;;;;;;;22.63;14.80;;;13.00;99.90;;;;;;25593442;23;20013;-61
2023/09/14 00:48:46;;;;;;;18.15;14.95;;;12.90;99.90;;;;;;25591781;23;20013;-62
2023/09/14 00:58:48;;;;;;;24.38;19.85;;;13.00;99.90;;;;;;25605715;23;20032;-61
2023/09/14 01:08:50;;;;;;;23.02;17.63;;;13.20;99.90;;;;;;25590884;23;20067;-62
2023/09/14 01:19:01;;;;;;;22.80;17.88;;;13.40;99.90;;;;;;25590662;23;20036;-62
2023/09/14 01:29:04;;;;;;;11.82;10.30;;;13.30;99.90;;;;;;25616723;23;20021;-56
2023/09/14 01:39:06;;;;;;;18.65;14.02;;;13.10;99.90;;;;;;25604180;23;20344;-62
2023/09/14 01:49:09;;;;;;;24.27;17.75;;;13.10;99.90;;;;;;25630634;23;20360;-62
2023/09/14 01:59:11;;;;;;;16.15;12.65;;;13.10;99.90;;;;;;25603499;23;20510;-54
2023/09/14 02:09:13;;;;;;;15.82;12.80;;;13.10;99.90;;;;;;25603063;23;20072;-55
2023/09/14 02:19:15;;;;;;;14.15;11.60;;;13.00;99.90;;;;;;25588165;23;20009;-52
2023/09/14 02:29:16;;;;;;;9.95;8.15;;;13.00;99.90;;;;;;25627227;23;20044;-53
2023/09/14 02:39:18;;;;;;;15.63;13.18;;;12.90;99.90;;;;;;25626971;23;20372;-61
2023/09/14 02:49:19;;;;;;;16.83;12.98;;;12.90;99.90;;;;;;25588059;23;20387;-61
2023/09/14 02:59:21;;;;;;;15.85;13.00;;;13.00;99.90;;;;;;25587318;23;20013;-61
2023/09/14 03:09:23;;;;;;;11.48;9.10;;;12.90;99.90;;;;;;25602227;23;20017;-61
2023/09/14 03:19:25;;;;;;;11.73;9.45;;;12.80;99.90;;;;;;25630428;23;20013;-61
2023/09/14 03:29:28;;;;;;;11.82;8.02;;;12.90;99.90;;;;;;25609601;23;20083;-62
2023/09/14 03:39:30;;;;;;;12.63;9.88;;;12.80;99.90;;;;;;25633085;23;20012;-62
2023/09/14 03:49:32;;;;;;;7.78;6.28;;;12.90;99.90;;;;;;25594116;23;20017;-62
2023/09/14 03:59:33;;;;;;;4.05;3.47;;;13.10;99.90;;;;;;25607940;23;20063;-62
2023/09/14 04:09:35;;;;;;;3.28;2.85;;;12.80;99.90;;;;;;25592834;23;20017;-61
2023/09/14 04:19:38;;;;;;;3.95;3.20;;;13.30;99.90;;;;;;25632053;23;20313;-62
2023/09/14 04:29:40;;;;;;;5.95;4.95;;;13.40;99.90;;;;;;25591531;23;20017;-62
2023/09/14 04:39:43;;;;;;;6.43;5.13;;;13.30;99.90;;;;;;25591197;23;20017;-62
2023/09/14 04:49:45;;;;;;;9.63;6.65;;;13.40;99.90;;;;;;25606034;23;20017;-62
2023/09/14 04:59:47;;;;;;;9.07;8.10;;;13.60;99.90;;;;;;25590502;23;20009;-62
2023/09/14 05:09:49;;;;;;;8.45;6.78;;;13.60;99.90;;;;;;25589916;23;20020;-63
2023/09/14 05:19:50;;;;;;;7.30;6.50;;;13.70;99.90;;;;;;25589901;23;20432;-62
2023/09/14 05:29:52;;;;;;;7.00;5.72;;;13.90;99.90;;;;;;25589100;23;20017;-62
2023/09/14 05:39:55;;;;;;;7.15;6.32;;;14.10;99.90;;;;;;25579054;23;20009;-63
2023/09/14 05:49:57;;;;;;;7.07;5.90;;;14.20;99.90;;;;;;25588586;23;20021;-63
2023/09/14 06:00:18;;;;;;;5.25;4.72;;;14.10;99.90;;;;;;25586603;23;20021;-63
2023/09/14 06:10:27;;;;;;;7.83;5.03;;;14.20;99.90;;;;;;25627742;23;20021;-63
2023/09/14 06:20:30;;;;;;;5.20;4.70;;;14.30;99.90;;;;;;25585141;23;20013;-62
2023/09/14 06:30:32;;;;;;;5.88;4.32;;;14.40;99.90;;;;;;25585855;23;20009;-63
2023/09/14 06:40:34;;;;;;;4.75;4.18;;;14.50;99.90;;;;;;25587276;23;20089;-56
2023/09/14 06:50:36;;;;;;;4.55;3.90;;;14.70;99.90;;;;;;25588472;23;20012;-60
2023/09/14 07:00:37;;;;;;;4.95;4.07;;;15.40;99.90;;;;;;25567674;23;20076;-61
2023/09/14 07:10:41;;;;;;;7.28;6.57;;;16.30;99.90;;;;;;25593936;23;20001;-62
2023/09/14 07:20:42;;;;;;;9.65;8.60;;;16.90;99.90;;;;;;25593816;23;20009;-56
2023/09/14 07:30:44;;;;;;;9.80;8.77;;;17.50;99.90;;;;;;25593281;23;20017;-61
2023/09/14 07:40:47;;;;;;;7.43;6.13;;;18.70;99.90;;;;;;25591190;23;20013;-60
2023/09/14 07:50:49;;;;;;;7.75;7.05;;;19.00;99.90;;;;;;25590393;23;20085;-61
2023/09/14 08:00:51;;;;;;;9.30;8.25;;;19.90;99.90;;;;;;25591743;23;20494;-62
2023/09/14 08:10:55;;;;;;;9.00;8.10;;;20.20;99.90;;;;;;25591980;23;20440;-63
2023/09/14 08:20:57;;;;;;;9.20;8.10;;;20.10;99.90;;;;;;25589951;23;20314;-64
2023/09/14 08:30:59;;;;;;;8.70;7.80;;;20.00;99.90;;;;;;25588228;23;20016;-64
2023/09/14 08:41:07;;;;;;;10.43;9.30;;;19.90;99.90;;;;;;25591083;23;20013;-63
2023/09/14 08:51:10;;;;;;;;;;;19.90;99.90;;;;;;25630747;23;20507;-64
2023/09/14 09:01:13;;;;;;;10.50;9.50;;;19.70;99.90;;;;;;25589777;23;19908;-64
2023/09/14 09:11:15;;;;;;;11.55;10.27;;;19.40;99.90;;;;;;25588841;23;20005;-62
2023/09/14 09:21:27;;;;;;;11.40;10.30;;;19.30;99.90;;;;;;25589202;23;20020;-64
2023/09/14 09:31:41;;;;;;;13.35;12.02;;;19.00;99.90;;;;;;25606912;23;20013;-56
2023/09/14 09:41:45;;;;;;;12.70;11.40;;;19.30;99.90;;;;;;25629730;23;20008;-63
2023/09/14 09:51:49;;;;;;;10.63;9.52;;;19.70;99.90;;;;;;25588144;23;20025;-61
2023/09/14 10:01:50;;;;;;;9.68;8.77;;;21.00;99.90;;;;;;25587684;23;20005;-56
2023/09/14 10:11:55;;;;;;;10.52;9.52;;;20.90;99.90;;;;;;25586807;23;20371;-62
2023/09/14 10:21:57;;;;;;;10.77;9.68;;;20.90;99.90;;;;;;25586901;23;20009;-62
2023/09/14 10:32:00;;;;;;;11.50;10.13;;;21.50;99.90;;;;;;25586101;23;20013;-62
2023/09/14 10:42:03;;;;;;;13.35;11.95;;;22.30;99.90;;;;;;25560047;23;20076;-58
2023/09/14 10:52:05;;;;;;;11.48;10.38;;;22.50;99.90;;;;;;25586247;23;20412;-63
2023/09/14 11:02:06;;;;;;;12.00;10.88;;;22.30;99.90;;;;;;25585969;23;20012;-61
2023/09/14 11:12:20;;;;;;;12.25;11.10;;;22.70;99.90;;;;;;25586210;23;20009;-55
2023/09/14 11:22:25;;;;;;;10.30;9.30;;;23.60;99.90;;;;;;25627050;23;20005;-57
2023/09/14 11:32:28;;;;;;;14.45;13.00;;;22.80;99.90;;;;;;25586814;23;20086;-64
2023/09/14 11:43:08;;;;;;;13.57;12.18;;;21.40;99.90;;;;;;25590535;23;20009;-63
2023/09/14 11:53:12;;;;;;;11.25;10.15;;;21.40;99.90;;;;;;25592284;23;20035;-64
2023/09/14 12:03:14;;;;;;;14.07;12.30;;;21.80;99.90;;;;;;25592237;23;20332;-55
2023/09/14 12:13:17;;;;;;;16.27;14.32;;;20.70;99.90;;;;;;25592073;23;20005;-64
2023/09/14 12:23:19;;;;;;;23.58;20.85;;;19.70;99.90;;;;;;25591482;23;20002;-64
2023/09/14 12:33:21;;;;;;;29.02;24.63;;;18.90;99.90;;;;;;25564481;23;20083;-64
2023/09/14 12:43:25;;;;;;;29.15;25.77;;;18.10;99.90;;;;;;25590692;23;20028;-55
2023/09/14 12:53:37;;;;;;;42.10;32.70;;;17.50;99.90;;;;;;25631265;23;20036;-64
2023/09/14 13:03:39;;;;;;;29.80;25.93;;;17.30;99.90;;;;;;25604546;23;20356;-64
2023/09/14 13:13:44;;;;;;;23.42;19.63;;;17.20;99.90;;;;;;25589913;23;20494;-63
2023/09/14 13:23:46;;;;;;;20.90;16.90;;;17.40;99.90;;;;;;25630297;23;20005;-55
2023/09/14 13:33:48;;;;;;;13.50;12.07;;;17.40;99.90;;;;;;25588136;23;20013;-63
2023/09/14 13:43:50;;;;;;;12.07;10.88;;;17.80;99.90;;;;;;25588157;23;20008;-63
2023/09/14 13:53:52;;;;;;;9.68;8.70;;;18.20;99.90;;;;;;25588313;23;20001;-63
2023/09/14 14:03:54;;;;;;;8.18;7.35;;;18.50;99.90;;;;;;25587316;23;20005;-52
2023/09/14 14:13:58;;;;;;;7.40;6.70;;;18.90;99.90;;;;;;25587794;23;20008;-63
2023/09/14 14:24:01;;;;;;;8.45;7.60;;;19.30;99.90;;;;;;25586570;23;20380;-63
2023/09/14 14:34:03;;;;;;;8.30;7.50;;;19.40;99.90;;;;;;25586398;23;20013;-63
2023/09/14 14:44:05;;;;;;;7.90;7.10;;;19.30;99.90;;;;;;25586666;23;20444;-63
2023/09/14 14:54:11;;;;;;;6.57;5.88;;;19.40;99.90;;;;;;25586790;23;20025;-64
2023/09/14 15:04:13;;;;;;;9.48;8.57;;;19.60;99.90;;;;;;25586716;23;20005;-63
2023/09/14 15:14:14;;;;;;;9.00;8.10;;;19.60;99.90;;;;;;25590058;23;20005;-64
2023/09/14 15:24:17;;;;;;;16.08;14.45;;;19.30;99.90;;;;;;25593949;23;20067;-63
2023/09/14 15:34:18;;;;;;;18.33;15.13;;;18.90;99.90;;;;;;25594345;23;20044;-64
2023/09/14 15:44:20;;;;;;;18.25;16.35;;;18.50;99.90;;;;;;25567414;23;20005;-63
2023/09/14 15:54:22;;;;;;;16.30;14.70;;;18.10;99.90;;;;;;25593059;23;20005;-63
2023/09/14 16:04:24;;;;;;;15.02;12.02;;;17.80;99.90;;;;;;25592779;23;20005;-62
2023/09/14 16:14:25;;;;;;;16.38;13.65;;;17.60;99.90;;;;;;25592676;23;20120;-62
2023/09/14 16:24:27;;;;;;;16.92;12.70;;;17.50;99.90;;;;;;25591924;23;20013;-63
2023/09/14 16:34:29;;;;;;;13.20;11.77;;;17.20;99.90;;;;;;25592138;23;20020;-62
2023/09/14 16:44:31;;;;;;;12.20;11.02;;;17.10;99.90;;;;;;25592332;23;20106;-62
2023/09/14 16:54:33;;;;;;;13.32;11.43;;;16.80;99.90;;;;;;25592426;23;20514;-62
2023/09/14 17:04:35;;;;;;;12.88;10.85;;;16.50;99.90;;;;;;25591580;23;20009;-62
2023/09/14 17:14:38;;;;;;;14.90;11.77;;;16.10;99.90;;;;;;25591321;23;20475;-62
2023/09/14 17:24:40;;;;;;;12.23;10.93;;;15.60;99.90;;;;;;25590286;23;20001;-62
2023/09/14 17:34:42;;;;;;;12.40;9.70;;;15.10;99.90;;;;;;25589785;23;20346;-61
2023/09/14 17:44:44;;;;;;;10.13;8.48;;;14.30;99.90;;;;;;25589650;23;20005;-49
2023/09/14 17:54:45;;;;;;;11.05;9.57;;;13.70;99.90;;;;;;25589735;23;20440;-62
2023/09/14 18:04:47;;;;;;;12.18;8.70;;;13.40;99.90;;;;;;25589312;23;20313;-63
2023/09/14 18:14:49;;;;;;;14.00;9.27;;;13.10;99.90;;;;;;25588954;23;20005;-62
2023/09/14 18:24:52;;;;;;;12.90;10.15;;;13.10;99.90;;;;;;25588121;23;20009;-61
2023/09/14 18:34:54;;;;;;;15.43;12.80;;;13.00;99.90;;;;;;25537133;23;20099;-61
2023/09/14 18:44:56;;;;;;;14.80;12.63;;;12.80;99.90;;;;;;25588273;23;20589;-53
2023/09/14 18:54:58;;;;;;;19.13;14.80;;;12.80;99.90;;;;;;25594670;23;20008;-62
2023/09/14 19:05:00;;;;;;;21.48;16.35;;;13.00;99.90;;;;;;25593426;23;20380;-50
2023/09/14 19:15:02;;;;;;;20.58;16.52;;;13.00;99.90;;;;;;25596967;23;20009;-61
2023/09/14 19:25:05;;;;;;;18.70;14.98;;;13.20;99.90;;;;;;25595119;23;20032;-53
2023/09/14 19:35:07;;;;;;;10.43;8.25;;;13.50;99.90;;;;;;25594721;23;20534;-54
2023/09/14 19:45:10;;;;;;;6.40;5.57;;;13.70;99.90;;;;;;25594149;23;20440;-62
2023/09/14 19:55:11;;;;;;;4.68;4.05;;;13.80;99.90;;;;;;25593705;23;20008;-63
2023/09/14 20:05:13;;;;;;;4.65;4.15;;;13.80;99.90;;;;;;25592815;23;20429;-54
2023/09/14 20:15:16;;;;;;;3.80;3.20;;;13.80;99.90;;;;;;25592875;23;20012;-63
2023/09/14 20:25:19;;;;;;;3.58;2.70;;;13.70;99.90;;;;;;25566424;23;20005;-63
2023/09/14 20:35:21;;;;;;;4.85;3.50;;;13.70;99.90;;;;;;25594149;23;20017;-62
2023/09/14 20:45:22;;;;;;;4.22;3.50;;;13.60;99.90;;;;;;25590385;23;20008;-62
2023/09/14 20:55:24;;;;;;;4.03;3.00;;;13.50;99.90;;;;;;25591644;23;20379;-63
2023/09/14 21:05:26;;;;;;;3.95;3.00;;;13.40;99.90;;;;;;25591099;23;20150;-63
2023/09/14 21:15:28;;;;;;;3.40;3.10;;;13.10;99.90;;;;;;25589641;23;20016;-52
2023/09/14 21:25:30;;;;;;;3.55;3.25;;;12.80;99.90;;;;;;25587692;23;20016;-62
2023/09/14 21:35:32;;;;;;;3.83;3.25;;;12.60;99.90;;;;;;25587325;23;20341;-63
2023/09/14 21:45:36;;;;;;;5.10;4.45;;;12.60;99.90;;;;;;25587891;23;20005;-63
2023/09/14 21:55:40;;;;;;;4.50;4.07;;;12.80;99.90;;;;;;25587601;23;20028;-63
2023/09/14 22:05:42;;;;;;;4.78;4.07;;;12.90;99.90;;;;;;25586050;23;20005;-63
2023/09/14 22:15:44;;;;;;;5.35;4.68;;;12.90;99.90;;;;;;25587112;23;20001;-63
2023/09/14 22:25:46;;;;;;;6.03;5.20;;;12.80;99.90;;;;;;25587893;23;20336;-63
2023/09/14 22:35:51;;;;;;;7.93;4.97;;;13.10;99.90;;;;;;25587731;23;20013;-63
2023/09/14 22:45:54;;;;;;;7.00;5.28;;;13.50;99.90;;;;;;25587394;23;20056;-63
2023/09/14 22:55:56;;;;;;;5.93;5.25;;;13.90;99.90;;;;;;25585924;23;20113;-62
2023/09/14 23:05:57;;;;;;;7.57;6.68;;;13.80;99.90;;;;;;25588702;23;20013;-62
2023/09/14 23:15:59;;;;;;;5.97;4.82;;;13.30;99.90;;;;;;25587330;23;20306;-62
2023/09/14 23:26:01;;;;;;;5.13;4.63;;;12.80;99.90;;;;;;25586696;22;20494;-62
2023/09/14 23:36:08;;;;;;;4.70;3.65;;;12.70;99.90;;;;;;25632164;23;20384;-63
2023/09/14 23:46:11;;;;;;;3.03;2.72;;;12.90;99.90;;;;;;25635461;23;20440;-63
2023/09/14 23:56:12;;;;;;;4.28;3.78;;;13.00;99.90;;;;;;25593161;23;20005;-64
